Time;durP1;ratioP1;P1;durP2;ratioP2;P2;SDS_P1;SDS_P2;PMS_P1;PMS_P2;Temp;Humidity;BMP_temperature;BMP_pressure;BME280_temperature;BME280_humidity;BME280_pressure;Samples;Min_cycle;Max_cycle;Signal;HPM_P1;HPM_P2
2023/03/06 00:00:56;;;;;;;13.73;7.43;;;3.50;99.90;;;;;;7331579;32;20594;-55
2023/03/06 00:04:58;;;;;;;13.23;8.90;;;3.50;99.90;;;;;;7334125;32;20187;-56
2023/03/06 00:09:00;;;;;;;10.40;8.27;;;3.50;99.90;;;;;;7336549;32;20566;-55
2023/03/06 00:13:04;;;;;;;11.88;8.02;;;3.40;99.90;;;;;;7343024;32;20644;-56
2023/03/06 00:17:06;;;;;;;11.05;7.85;;;3.40;99.90;;;;;;7331746;32;20118;-55
2023/03/06 00:21:08;;;;;;;9.27;7.60;;;3.40;99.90;;;;;;7340696;32;20207;-55
2023/03/06 00:25:16;;;;;;;11.02;7.40;;;3.30;99.90;;;;;;7333015;32;20542;-55
2023/03/06 00:29:17;;;;;;;14.05;8.68;;;3.30;99.90;;;;;;7333339;32;20135;-55
2023/03/06 00:33:19;;;;;;;18.08;9.20;;;3.30;99.90;;;;;;7328035;32;20178;-55
2023/03/06 00:37:22;;;;;;;13.23;10.20;;;3.20;99.90;;;;;;7332975;32;20123;-55
2023/03/06 00:41:25;;;;;;;13.93;8.98;;;3.20;99.90;;;;;;7338751;32;20144;-55
2023/03/06 00:45:28;;;;;;;16.48;9.88;;;3.20;99.90;;;;;;7335375;32;20185;-55
2023/03/06 00:49:30;;;;;;;16.60;10.50;;;3.20;99.90;;;;;;7334176;32;20674;-56
2023/03/06 00:53:31;;;;;;;15.07;10.30;;;3.20;99.90;;;;;;7332104;32;20111;-55
2023/03/06 00:57:33;;;;;;;16.42;11.25;;;3.20;99.90;;;;;;7341663;32;20116;-55
2023/03/06 01:01:35;;;;;;;17.70;10.93;;;3.20;99.90;;;;;;7335290;32;20134;-55
2023/03/06 01:05:37;;;;;;;17.90;11.90;;;3.20;99.90;;;;;;7341810;32;20509;-56
2023/03/06 01:09:40;;;;;;;18.02;11.70;;;3.20;99.90;;;;;;7335299;32;20222;-55
2023/03/06 01:13:43;;;;;;;17.52;11.63;;;3.20;99.90;;;;;;7337038;32;20465;-56
2023/03/06 01:17:44;;;;;;;19.75;11.60;;;3.20;99.90;;;;;;7334857;32;20453;-56
2023/03/06 01:21:46;;;;;;;18.17;11.73;;;3.20;99.90;;;;;;7333122;32;20133;-56
2023/03/06 01:25:48;;;;;;;21.45;12.43;;;3.30;99.90;;;;;;7331447;32;20230;-56
2023/03/06 01:29:49;;;;;;;21.33;13.00;;;3.30;99.90;;;;;;7332455;32;20222;-55
2023/03/06 01:33:51;;;;;;;18.60;12.68;;;3.30;99.90;;;;;;7342656;32;20107;-55
2023/03/06 01:37:53;;;;;;;20.37;13.70;;;3.30;99.90;;;;;;7339200;32;20129;-55
2023/03/06 01:41:55;;;;;;;20.23;13.73;;;3.20;99.90;;;;;;7339580;32;20766;-54
2023/03/06 01:46:28;;;;;;;20.83;13.18;;;3.10;99.90;;;;;;7333169;32;20568;-54
2023/03/06 01:50:30;;;;;;;23.48;14.40;;;3.10;99.90;;;;;;7339427;32;20315;-54
2023/03/06 01:54:45;;;;;;;24.58;14.45;;;3.00;99.90;;;;;;7339109;32;20216;-54
2023/03/06 01:58:48;;;;;;;23.12;14.05;;;2.90;99.90;;;;;;7341433;32;20115;-54
2023/03/06 02:03:04;;;;;;;23.30;14.35;;;2.90;99.90;;;;;;7341471;32;20203;-54
2023/03/06 02:07:07;;;;;;;22.75;15.43;;;2.90;99.90;;;;;;7334630;32;20662;-54
2023/03/06 02:11:21;;;;;;;22.45;14.95;;;2.90;99.90;;;;;;7325516;32;20353;-55
2023/03/06 02:15:24;;;;;;;24.37;14.90;;;2.90;99.90;;;;;;7337559;32;20620;-54
2023/03/06 02:19:50;;;;;;;25.42;15.90;;;2.90;99.90;;;;;;7344418;32;20676;-54
2023/03/06 02:24:12;;;;;;;25.25;15.27;;;3.00;99.90;;;;;;7330013;32;20150;-55
2023/03/06 02:28:16;;;;;;;24.00;15.35;;;3.00;99.90;;;;;;7330901;32;20373;-54
2023/03/06 02:32:18;;;;;;;23.98;15.68;;;3.00;99.90;;;;;;7332225;32;20126;-55
2023/03/06 02:36:19;;;;;;;23.80;15.40;;;3.00;99.90;;;;;;7341762;32;20099;-54
2023/03/06 02:40:22;;;;;;;26.73;17.15;;;3.10;99.90;;;;;;7334063;32;20107;-55
2023/03/06 02:44:26;;;;;;;24.77;16.17;;;3.00;99.90;;;;;;7334423;32;20145;-54
2023/03/06 02:48:28;;;;;;;24.33;16.35;;;3.10;99.90;;;;;;7340270;32;20131;-55
2023/03/06 02:52:29;;;;;;;27.95;17.73;;;3.10;99.90;;;;;;7336109;32;20190;-54
2023/03/06 02:56:31;;;;;;;27.62;17.10;;;3.10;99.90;;;;;;7337700;32;20162;-54
2023/03/06 03:00:33;;;;;;;28.83;17.83;;;3.00;99.90;;;;;;7333843;32;20111;-54
2023/03/06 03:04:35;;;;;;;26.87;17.15;;;3.00;99.90;;;;;;7336957;32;20104;-55
2023/03/06 03:08:37;;;;;;;28.30;18.05;;;3.00;99.90;;;;;;7335231;32;20188;-54
2023/03/06 03:12:39;;;;;;;29.55;18.25;;;3.00;99.90;;;;;;7327563;32;20141;-54
2023/03/06 03:16:40;;;;;;;26.83;17.67;;;3.10;99.90;;;;;;7331399;32;20305;-55
2023/03/06 03:20:42;;;;;;;24.60;16.90;;;3.00;99.90;;;;;;7335753;32;20197;-54
2023/03/06 03:24:44;;;;;;;30.10;17.85;;;3.00;99.90;;;;;;7347448;32;20112;-54
2023/03/06 03:28:46;;;;;;;28.15;16.58;;;3.00;99.90;;;;;;7343461;32;20172;-54
2023/03/06 03:32:48;;;;;;;28.80;17.50;;;3.00;99.90;;;;;;7343188;32;20115;-54
2023/03/06 03:36:50;;;;;;;25.02;17.42;;;3.00;99.90;;;;;;7342252;32;20167;-55
2023/03/06 03:40:51;;;;;;;28.50;16.77;;;3.00;99.90;;;;;;7325665;32;20298;-54
2023/03/06 03:44:53;;;;;;;25.95;15.80;;;2.90;99.90;;;;;;7345107;32;20111;-54
2023/03/06 03:48:55;;;;;;;24.98;15.85;;;3.00;99.90;;;;;;7338590;32;20103;-55
2023/03/06 03:52:57;;;;;;;24.35;16.85;;;3.00;99.90;;;;;;7336818;32;20587;-54
2023/03/06 03:56:58;;;;;;;23.95;16.27;;;2.90;99.90;;;;;;7339279;32;20161;-55
2023/03/06 04:01:00;;;;;;;24.42;15.57;;;3.00;99.90;;;;;;7341904;32;20273;-54
2023/03/06 04:05:03;;;;;;;25.55;16.70;;;3.00;99.90;;;;;;7336364;32;20139;-55
2023/03/06 04:09:05;;;;;;;26.30;17.10;;;3.00;99.90;;;;;;7342505;32;20582;-54
2023/03/06 04:13:07;;;;;;;24.98;16.95;;;3.00;99.90;;;;;;7341798;32;20135;-54
2023/03/06 04:17:10;;;;;;;25.08;15.07;;;3.00;99.90;;;;;;7335595;32;20261;-54
2023/03/06 04:21:12;;;;;;;22.60;15.75;;;3.10;99.90;;;;;;7338034;32;20541;-55
2023/03/06 04:25:14;;;;;;;25.33;15.60;;;3.10;99.90;;;;;;7328656;32;20658;-55
2023/03/06 04:29:16;;;;;;;23.67;15.90;;;3.00;99.90;;;;;;7333556;32;20277;-54
2023/03/06 04:33:17;;;;;;;25.92;16.05;;;3.00;99.90;;;;;;7338433;32;20107;-54
2023/03/06 04:37:22;;;;;;;31.35;16.48;;;3.00;99.90;;;;;;7337726;32;20276;-55
2023/03/06 04:41:24;;;;;;;32.88;17.08;;;2.90;99.90;;;;;;7342675;32;20230;-55
2023/03/06 04:45:28;;;;;;;24.33;15.45;;;2.90;99.90;;;;;;7336853;32;20178;-54
2023/03/06 04:49:30;;;;;;;27.87;17.62;;;3.00;99.90;;;;;;7339363;32;20608;-54
2023/03/06 04:53:32;;;;;;;26.62;16.80;;;2.90;99.90;;;;;;7338153;32;20273;-55
2023/03/06 04:57:35;;;;;;;23.83;15.77;;;3.00;99.90;;;;;;7339678;32;20111;-55
2023/03/06 05:01:37;;;;;;;24.63;16.30;;;3.00;99.90;;;;;;7339058;32;20157;-55
2023/03/06 05:05:39;;;;;;;28.92;18.10;;;3.00;99.90;;;;;;7340391;32;20190;-55
2023/03/06 05:09:41;;;;;;;27.20;16.87;;;2.90;99.90;;;;;;7342063;32;20225;-55
2023/03/06 05:13:42;;;;;;;28.95;17.12;;;3.00;99.90;;;;;;7336540;32;20800;-55
2023/03/06 05:17:45;;;;;;;28.52;16.55;;;3.00;99.90;;;;;;7342811;32;20131;-55
2023/03/06 05:21:47;;;;;;;26.40;16.62;;;3.00;99.90;;;;;;7335234;32;20627;-55
2023/03/06 05:25:48;;;;;;;29.50;17.60;;;3.10;99.90;;;;;;7330919;32;20206;-55
2023/03/06 05:29:50;;;;;;;29.00;17.08;;;3.00;99.90;;;;;;7330194;32;20164;-55
2023/03/06 05:33:52;;;;;;;25.05;16.35;;;3.00;99.90;;;;;;7330936;32;20285;-55
2023/03/06 05:37:53;;;;;;;26.52;17.30;;;3.00;99.90;;;;;;7333108;32;20136;-55
2023/03/06 05:41:55;;;;;;;30.42;17.55;;;3.00;99.90;;;;;;7335179;32;20137;-55
2023/03/06 05:46:01;;;;;;;29.98;18.17;;;2.90;99.90;;;;;;7339414;32;20178;-55
2023/03/06 05:50:06;;;;;;;27.65;17.58;;;2.90;99.90;;;;;;7323950;32;20497;-54
2023/03/06 05:54:08;;;;;;;29.75;17.92;;;2.80;99.90;;;;;;7333370;32;20205;-55
2023/03/06 05:58:10;;;;;;;36.28;19.23;;;2.80;99.90;;;;;;7336727;32;20653;-55
2023/03/06 06:02:11;;;;;;;29.08;18.92;;;2.80;99.90;;;;;;7329902;32;20213;-55
2023/03/06 06:06:14;;;;;;;29.80;19.00;;;2.80;99.90;;;;;;7329463;32;20417;-55
2023/03/06 06:10:16;;;;;;;31.95;19.45;;;2.70;99.90;;;;;;7334601;32;20711;-56
2023/03/06 06:14:18;;;;;;;30.92;17.95;;;2.70;99.90;;;;;;7330017;32;20630;-56
2023/03/06 06:18:20;;;;;;;33.60;19.05;;;2.60;99.90;;;;;;7338762;32;20120;-56
2023/03/06 06:22:22;;;;;;;30.10;18.48;;;2.50;99.90;;;;;;7338692;32;20190;-56
2023/03/06 06:26:23;;;;;;;28.33;17.95;;;2.50;99.90;;;;;;7338437;32;20112;-56
2023/03/06 06:30:25;;;;;;;33.72;18.80;;;2.60;99.90;;;;;;7336453;32;20099;-57
2023/03/06 06:34:27;;;;;;;33.55;19.17;;;2.60;99.90;;;;;;7331526;32;20154;-56
2023/03/06 06:38:29;;;;;;;31.23;18.90;;;2.70;99.90;;;;;;7329906;32;20131;-57
2023/03/06 06:42:31;;;;;;;30.92;18.48;;;2.70;99.90;;;;;;7324506;32;20128;-56
2023/03/06 06:46:42;;;;;;;31.25;17.52;;;2.70;99.90;;;;;;7331529;32;20563;-56
2023/03/06 06:51:04;;;;;;;30.15;18.87;;;2.80;99.90;;;;;;7341166;32;20459;-57
2023/03/06 06:55:07;;;;;;;31.58;18.77;;;2.90;99.90;;;;;;7336985;32;20305;-56
2023/03/06 06:59:08;;;;;;;32.75;19.23;;;2.90;99.90;;;;;;7343386;32;20171;-56
2023/03/06 07:03:18;;;;;;;35.50;20.00;;;2.90;99.90;;;;;;7332851;32;20510;-56
2023/03/06 07:07:19;;;;;;;31.65;18.73;;;3.00;99.90;;;;;;7341949;32;20445;-56
2023/03/06 07:11:22;;;;;;;33.30;19.80;;;2.90;99.90;;;;;;7341915;32;20261;-56
2023/03/06 07:15:25;;;;;;;37.90;20.80;;;3.00;99.90;;;;;;7345803;32;20186;-57
2023/03/06 07:19:27;;;;;;;34.30;19.27;;;3.00;99.90;;;;;;7335285;32;20174;-56
2023/03/06 07:23:29;;;;;;;36.58;19.02;;;3.10;99.90;;;;;;7331411;32;20532;-56
2023/03/06 07:27:31;;;;;;;35.38;19.12;;;3.20;99.90;;;;;;7337660;32;20104;-55
2023/03/06 07:31:33;;;;;;;30.98;17.40;;;3.20;99.90;;;;;;7343948;32;20126;-56
2023/03/06 07:35:35;;;;;;;33.42;18.80;;;3.20;99.90;;;;;;7346173;32;20146;-56
2023/03/06 07:39:36;;;;;;;34.40;18.20;;;3.30;99.90;;;;;;7341714;32;20833;-57
2023/03/06 07:43:40;;;;;;;31.58;17.50;;;3.30;99.90;;;;;;7343596;32;20111;-56
2023/03/06 07:47:41;;;;;;;34.03;18.73;;;3.30;99.90;;;;;;7337058;32;20686;-56
2023/03/06 07:51:43;;;;;;;32.65;18.08;;;3.30;99.90;;;;;;7338518;32;20204;-56
2023/03/06 07:55:45;;;;;;;32.00;18.20;;;3.40;99.90;;;;;;7330309;32;20528;-57
2023/03/06 07:59:47;;;;;;;33.53;17.23;;;3.40;99.90;;;;;;7336610;32;20125;-56
2023/03/06 08:03:49;;;;;;;31.12;17.70;;;3.40;99.90;;;;;;7329763;32;20103;-56
2023/03/06 08:07:51;;;;;;;30.15;16.70;;;3.30;99.90;;;;;;7350744;32;20855;-56
2023/03/06 08:11:52;;;;;;;31.55;16.50;;;3.30;99.90;;;;;;7338123;32;20175;-56
2023/03/06 08:15:55;;;;;;;32.50;17.05;;;3.30;99.90;;;;;;7343975;32;20139;-57
2023/03/06 08:19:57;;;;;;;31.02;17.08;;;3.40;99.90;;;;;;7334657;32;20128;-56
2023/03/06 08:23:59;;;;;;;33.38;17.52;;;3.50;99.90;;;;;;7337030;32;20114;-56
2023/03/06 08:28:00;;;;;;;36.03;18.02;;;3.70;99.90;;;;;;7344226;32;20237;-57
2023/03/06 08:32:02;;;;;;;36.72;18.62;;;3.70;99.90;;;;;;7342948;32;20145;-56
2023/03/06 08:36:04;;;;;;;42.00;22.08;;;3.80;99.90;;;;;;7342363;32;20134;-58
2023/03/06 08:40:07;;;;;;;35.45;19.50;;;3.80;99.90;;;;;;7331096;32;20107;-56
2023/03/06 08:44:09;;;;;;;37.05;20.35;;;3.90;99.90;;;;;;7327630;32;20183;-57
2023/03/06 08:48:11;;;;;;;37.33;20.05;;;4.00;99.90;;;;;;7338334;32;20183;-57
2023/03/06 08:52:13;;;;;;;37.20;20.40;;;4.00;99.90;;;;;;7338704;32;20112;-56
2023/03/06 08:56:27;;;;;;;38.78;21.25;;;4.00;99.90;;;;;;7335330;32;20172;-57
2023/03/06 09:00:30;;;;;;;41.35;21.67;;;4.00;99.90;;;;;;7333407;32;20175;-56
2023/03/06 09:04:32;;;;;;;44.83;24.00;;;4.00;99.90;;;;;;7339457;32;20107;-57
2023/03/06 09:08:34;;;;;;;44.03;23.48;;;4.00;99.90;;;;;;7343745;32;20490;-57
2023/03/06 09:12:37;;;;;;;42.08;24.00;;;4.00;99.90;;;;;;7341487;32;20119;-57
2023/03/06 09:16:52;;;;;;;39.15;23.12;;;4.00;99.90;;;;;;7335873;32;20267;-57
2023/03/06 09:20:54;;;;;;;43.78;23.38;;;3.90;99.90;;;;;;7337272;32;20182;-56
2023/03/06 09:24:57;;;;;;;43.45;23.35;;;3.80;99.90;;;;;;7333886;32;20232;-56
2023/03/06 09:28:58;;;;;;;46.33;22.77;;;3.50;99.90;;;;;;7337909;32;20610;-56
2023/03/06 09:33:00;;;;;;;41.13;23.55;;;3.50;99.90;;;;;;7337367;32;20949;-57
2023/03/06 09:37:02;;;;;;;39.53;22.77;;;3.50;99.90;;;;;;7336814;32;20903;-57
2023/03/06 09:41:26;;;;;;;48.03;26.95;;;3.70;99.90;;;;;;7334370;32;20698;-57
2023/03/06 09:45:29;;;;;;;45.20;23.25;;;4.00;99.90;;;;;;7330880;32;20119;-56
2023/03/06 09:49:58;;;;;;;44.53;23.02;;;4.00;99.90;;;;;;7342086;32;20134;-56
2023/03/06 09:54:11;;;;;;;42.50;24.12;;;4.00;99.90;;;;;;7334433;32;20563;-56
2023/03/06 09:58:21;;;;;;;39.30;23.02;;;4.00;99.90;;;;;;7331961;32;20482;-56
2023/03/06 10:02:30;;;;;;;38.70;22.55;;;4.00;99.90;;;;;;7337784;32;20115;-56
2023/03/06 10:06:47;;;;;;;36.97;21.60;;;3.90;99.90;;;;;;7332960;32;20110;-56
2023/03/06 10:10:57;;;;;;;36.57;21.00;;;3.90;99.90;;;;;;7336100;32;20115;-57
2023/03/06 10:15:06;;;;;;;34.90;20.12;;;4.00;99.90;;;;;;7328649;32;20250;-56
2023/03/06 10:19:16;;;;;;;35.10;20.00;;;4.00;99.90;;;;;;7333239;32;20112;-57
2023/03/06 10:23:46;;;;;;;35.92;19.30;;;4.10;99.90;;;;;;7330311;32;20666;-57
2023/03/06 10:28:01;;;;;;;33.30;19.15;;;4.30;99.90;;;;;;7330668;32;20111;-57
2023/03/06 10:32:13;;;;;;;31.75;17.65;;;4.50;99.90;;;;;;7335755;32;20193;-56
2023/03/06 10:36:16;;;;;;;35.67;19.85;;;4.60;99.90;;;;;;7338103;32;20442;-57
2023/03/06 10:40:22;;;;;;;24.27;15.00;;;5.10;99.90;;;;;;7327456;32;20107;-57
2023/03/06 10:44:24;;;;;;;21.37;11.70;;;5.50;99.90;;;;;;7337929;32;20165;-58
2023/03/06 10:48:29;;;;;;;19.17;12.20;;;5.90;99.90;;;;;;7333553;32;20320;-57
2023/03/06 10:52:33;;;;;;;22.52;12.60;;;6.00;99.90;;;;;;7331695;32;20371;-57
2023/03/06 10:56:43;;;;;;;20.35;12.77;;;6.00;99.90;;;;;;7334130;32;20822;-57
2023/03/06 11:00:45;;;;;;;21.10;13.30;;;6.00;99.90;;;;;;7324351;32;20489;-57
2023/03/06 11:04:53;;;;;;;22.05;12.95;;;5.70;99.90;;;;;;7330548;32;20182;-57
2023/03/06 11:09:22;;;;;;;22.95;13.27;;;5.50;99.90;;;;;;7330753;32;20135;-57
2023/03/06 11:13:26;;;;;;;23.42;13.88;;;5.10;99.90;;;;;;7331858;32;20478;-57
2023/03/06 11:17:30;;;;;;;23.12;14.48;;;5.00;99.90;;;;;;7327302;32;20091;-57
2023/03/06 11:21:35;;;;;;;25.95;14.27;;;5.10;99.90;;;;;;7333418;32;20854;-57
2023/03/06 11:25:41;;;;;;;25.77;14.75;;;5.00;99.90;;;;;;7332794;32;20104;-56
2023/03/06 11:29:47;;;;;;;25.33;14.87;;;4.90;99.90;;;;;;7322059;32;20183;-57
2023/03/06 11:34:01;;;;;;;24.23;14.30;;;4.90;99.90;;;;;;7330474;32;20253;-57
2023/03/06 11:38:11;;;;;;;23.70;14.87;;;4.90;99.90;;;;;;7333277;32;20265;-57
2023/03/06 11:42:26;;;;;;;30.02;16.30;;;5.00;99.90;;;;;;7337358;32;20317;-57
2023/03/06 11:46:33;;;;;;;23.55;14.90;;;5.40;99.90;;;;;;7335381;32;20241;-57
2023/03/06 11:50:39;;;;;;;22.35;12.52;;;6.40;99.90;;;;;;7339033;32;20135;-57
2023/03/06 11:54:40;;;;;;;20.15;11.57;;;7.30;99.90;;;;;;7333262;32;20213;-57
2023/03/06 11:58:45;;;;;;;17.65;11.63;;;8.50;99.90;;;;;;7334208;32;20224;-57
2023/03/06 12:03:11;;;;;;;18.17;12.30;;;8.90;99.90;;;;;;7336130;32;20188;-57
2023/03/06 12:07:31;;;;;;;17.90;11.70;;;9.80;99.90;;;;;;7335552;32;20257;-57
2023/03/06 12:11:57;;;;;;;19.20;13.32;;;10.10;99.90;;;;;;7329920;32;20114;-57
2023/03/06 12:16:06;;;;;;;18.92;12.93;;;10.20;99.90;;;;;;7333700;32;20145;-57
2023/03/06 12:20:33;;;;;;;18.55;13.00;;;9.70;99.90;;;;;;7341775;32;20976;-57
2023/03/06 12:25:02;;;;;;;19.23;13.03;;;9.80;99.90;;;;;;7327398;32;20552;-57
2023/03/06 12:29:15;;;;;;;17.40;11.30;;;9.60;99.90;;;;;;7333349;32;20111;-58
2023/03/06 12:33:44;;;;;;;15.52;11.30;;;10.50;99.90;;;;;;7336249;32;20200;-56
2023/03/06 12:38:32;;;;;;;15.43;11.15;;;11.60;99.90;;;;;;7330345;32;20260;-57
2023/03/06 12:42:54;;;;;;;17.80;11.80;;;10.70;99.90;;;;;;7331673;32;20244;-57
2023/03/06 12:47:01;;;;;;;16.40;10.77;;;9.40;99.90;;;;;;7329155;32;20778;-56
2023/03/06 12:51:06;;;;;;;16.47;10.80;;;9.00;99.90;;;;;;7332913;32;20182;-56
2023/03/06 12:55:16;;;;;;;15.95;11.18;;;9.10;99.90;;;;;;7335431;32;20103;-57
2023/03/06 12:59:33;;;;;;;17.67;11.52;;;9.00;99.90;;;;;;7335809;32;20598;-57
2023/03/06 13:03:54;;;;;;;17.37;10.98;;;7.80;99.90;;;;;;7334924;32;20175;-57
2023/03/06 13:08:26;;;;;;;21.58;12.70;;;7.00;99.90;;;;;;7336698;32;20169;-56
2023/03/06 13:12:57;;;;;;;20.80;13.43;;;6.90;99.90;;;;;;7336141;32;20279;-56
2023/03/06 13:17:21;;;;;;;19.85;13.15;;;7.00;99.90;;;;;;7332949;32;20136;-56
2023/03/06 13:21:55;;;;;;;18.90;12.37;;;6.60;99.90;;;;;;7327672;32;20205;-56
2023/03/06 13:25:59;;;;;;;20.60;13.20;;;6.40;99.90;;;;;;7318191;32;20153;-56
2023/03/06 13:30:39;;;;;;;20.25;12.35;;;6.30;99.90;;;;;;7339834;32;20221;-56
2023/03/06 13:34:45;;;;;;;17.00;11.55;;;6.50;99.90;;;;;;7336328;32;20167;-56
2023/03/06 13:38:47;;;;;;;22.02;13.00;;;6.60;99.90;;;;;;7335895;32;20115;-58
2023/03/06 13:42:48;;;;;;;18.90;11.63;;;6.40;99.90;;;;;;7335205;32;20142;-56
2023/03/06 13:47:05;;;;;;;18.08;11.45;;;6.30;99.90;;;;;;7337403;32;20260;-56
2023/03/06 13:51:22;;;;;;;20.90;10.27;;;6.70;99.90;;;;;;7331630;32;20237;-57
2023/03/06 13:55:36;;;;;;;19.27;12.40;;;7.80;99.90;;;;;;7337512;32;20327;-56
2023/03/06 14:00:16;;;;;;;21.23;12.18;;;8.20;99.90;;;;;;7338509;32;20111;-56
2023/03/06 14:04:52;;;;;;;19.83;12.20;;;7.80;99.90;;;;;;7333635;32;20201;-56
2023/03/06 14:08:54;;;;;;;17.42;11.23;;;8.20;99.90;;;;;;7329090;32;20844;-58
2023/03/06 14:13:06;;;;;;;17.52;11.57;;;9.10;99.90;;;;;;7330867;32;20199;-56
2023/03/06 14:17:19;;;;;;;17.70;11.77;;;9.00;99.90;;;;;;7341386;32;20526;-56
2023/03/06 14:21:37;;;;;;;22.62;15.57;;;8.80;99.90;;;;;;7343738;32;20107;-57
2023/03/06 14:25:41;;;;;;;16.35;10.30;;;8.90;99.90;;;;;;7339265;32;20634;-56
2023/03/06 14:29:45;;;;;;;16.67;10.80;;;8.90;99.90;;;;;;7332461;32;20191;-56
2023/03/06 14:33:52;;;;;;;19.62;11.27;;;8.80;99.90;;;;;;7334305;32;20688;-56
2023/03/06 14:38:00;;;;;;;15.32;10.82;;;8.80;99.90;;;;;;7334621;32;20194;-56
2023/03/06 14:42:25;;;;;;;17.85;11.12;;;8.70;99.90;;;;;;7336661;32;20548;-56
2023/03/06 14:46:27;;;;;;;16.60;11.82;;;8.80;99.90;;;;;;7329240;32;20107;-56
2023/03/06 14:50:32;;;;;;;16.90;11.10;;;8.50;99.90;;;;;;7330992;32;20111;-56
2023/03/06 14:54:38;;;;;;;17.87;12.27;;;7.90;99.90;;;;;;7333218;32;20220;-57
2023/03/06 14:58:39;;;;;;;19.67;11.90;;;7.40;99.90;;;;;;7330347;32;20342;-55
2023/03/06 15:02:42;;;;;;;16.85;11.48;;;7.10;99.90;;;;;;7330289;32;20195;-57
2023/03/06 15:06:44;;;;;;;17.02;11.57;;;7.20;99.90;;;;;;7336754;32;20324;-57
2023/03/06 15:11:01;;;;;;;16.80;11.32;;;7.20;99.90;;;;;;7332803;32;20165;-56
2023/03/06 15:15:06;;;;;;;15.95;11.02;;;7.10;99.90;;;;;;7332805;32;20613;-56
2023/03/06 15:19:19;;;;;;;23.25;14.27;;;6.90;99.90;;;;;;7341085;32;20115;-56
2023/03/06 15:23:24;;;;;;;20.37;13.18;;;6.90;99.90;;;;;;7332003;32;20190;-56
2023/03/06 15:27:29;;;;;;;18.95;11.45;;;7.00;99.90;;;;;;7337567;32;20175;-56
2023/03/06 15:31:31;;;;;;;24.45;13.25;;;7.00;99.90;;;;;;7333433;32;20254;-57
2023/03/06 15:35:34;;;;;;;22.87;14.20;;;6.70;99.90;;;;;;7333612;32;20108;-56
2023/03/06 15:39:40;;;;;;;23.17;15.80;;;6.60;99.90;;;;;;7343358;32;20169;-56
2023/03/06 15:43:41;;;;;;;25.42;16.83;;;6.60;99.90;;;;;;7339184;32;20524;-56
2023/03/06 15:47:45;;;;;;;26.77;17.05;;;6.50;99.90;;;;;;7339388;32;20100;-56
2023/03/06 15:51:46;;;;;;;25.40;16.12;;;6.20;99.90;;;;;;7339699;32;20853;-57
2023/03/06 15:55:50;;;;;;;25.98;16.10;;;6.20;99.90;;;;;;7332535;32;20134;-56
2023/03/06 15:59:52;;;;;;;26.27;16.25;;;6.00;99.90;;;;;;7333161;32;20131;-56
2023/03/06 16:03:54;;;;;;;27.13;16.85;;;5.90;99.90;;;;;;7337526;32;20721;-57
2023/03/06 16:07:56;;;;;;;27.98;16.20;;;5.70;99.90;;;;;;7335291;32;20134;-57
2023/03/06 16:11:58;;;;;;;25.30;16.80;;;5.70;99.90;;;;;;7337272;32;20115;-56
2023/03/06 16:16:00;;;;;;;24.48;15.95;;;5.70;99.90;;;;;;7338762;32;20754;-56
2023/03/06 16:20:02;;;;;;;23.12;15.45;;;5.70;99.90;;;;;;7332186;32;20232;-56
2023/03/06 16:24:03;;;;;;;24.45;14.98;;;5.70;99.90;;;;;;7332369;32;20203;-56
2023/03/06 16:28:10;;;;;;;24.83;15.00;;;5.60;99.90;;;;;;7339205;32;20107;-56
2023/03/06 16:32:12;;;;;;;21.62;14.38;;;5.60;99.90;;;;;;7335839;32;20107;-56
2023/03/06 16:36:22;;;;;;;21.58;13.82;;;5.50;99.90;;;;;;7332262;32;20218;-56
2023/03/06 16:40:36;;;;;;;22.83;14.02;;;5.40;99.90;;;;;;7334139;32;20249;-57
2023/03/06 16:44:38;;;;;;;21.05;13.38;;;5.30;99.90;;;;;;7332022;32;20138;-56
2023/03/06 16:48:39;;;;;;;22.73;13.60;;;5.30;99.90;;;;;;7336426;32;20157;-56
2023/03/06 16:52:41;;;;;;;20.92;13.23;;;5.20;99.90;;;;;;7332237;32;20137;-56
2023/03/06 16:56:43;;;;;;;20.17;12.82;;;5.20;99.90;;;;;;7340527;32;20159;-56
2023/03/06 17:00:44;;;;;;;22.42;13.62;;;5.20;99.90;;;;;;7327798;32;20545;-57
2023/03/06 17:04:46;;;;;;;21.02;14.10;;;5.20;99.90;;;;;;7340492;32;20167;-56
2023/03/06 17:08:49;;;;;;;23.45;15.75;;;5.10;99.90;;;;;;7336051;32;20528;-56
2023/03/06 17:12:51;;;;;;;21.10;14.00;;;5.10;99.90;;;;;;7335673;32;20206;-56
2023/03/06 17:16:53;;;;;;;23.02;14.65;;;5.10;99.90;;;;;;7333383;32;20150;-55
2023/03/06 17:20:55;;;;;;;25.10;14.25;;;5.10;99.90;;;;;;7335511;32;20220;-56
2023/03/06 17:24:59;;;;;;;25.08;14.93;;;5.00;99.90;;;;;;7336378;32;20099;-56
2023/03/06 17:29:00;;;;;;;22.83;13.80;;;5.00;99.90;;;;;;7334403;32;20591;-56
2023/03/06 17:33:02;;;;;;;22.00;14.00;;;4.90;99.90;;;;;;7333353;32;20178;-55
2023/03/06 17:37:04;;;;;;;21.20;13.68;;;5.00;99.90;;;;;;7328871;32;20226;-57
2023/03/06 17:41:08;;;;;;;23.95;14.82;;;4.90;99.90;;;;;;7339731;32;20198;-55
2023/03/06 17:45:10;;;;;;;28.38;14.63;;;4.90;99.90;;;;;;7333685;32;20204;-55
2023/03/06 17:49:12;;;;;;;20.15;13.32;;;4.90;99.90;;;;;;7333262;32;20182;-57
2023/03/06 17:53:14;;;;;;;23.67;13.93;;;4.90;99.90;;;;;;7337241;32;20107;-55
2023/03/06 17:57:15;;;;;;;22.02;13.98;;;4.90;99.90;;;;;;7331238;32;20207;-55
2023/03/06 18:01:20;;;;;;;24.63;14.60;;;4.90;99.90;;;;;;7336465;32;20135;-55
2023/03/06 18:05:22;;;;;;;26.45;14.70;;;4.80;99.90;;;;;;7340347;32;20230;-55
2023/03/06 18:09:24;;;;;;;22.75;14.10;;;4.80;99.90;;;;;;7340541;32;20218;-55
2023/03/06 18:13:26;;;;;;;25.40;14.73;;;4.80;99.90;;;;;;7330326;32;20111;-55
2023/03/06 18:17:27;;;;;;;25.35;14.80;;;4.80;99.90;;;;;;7338767;32;20167;-55
2023/03/06 18:21:29;;;;;;;22.37;15.18;;;4.80;99.90;;;;;;7334594;32;20104;-55
2023/03/06 18:25:31;;;;;;;23.25;14.38;;;4.70;99.90;;;;;;7329712;32;20151;-55
2023/03/06 18:29:33;;;;;;;23.05;14.30;;;4.70;99.90;;;;;;7338434;32;20182;-55
2023/03/06 18:33:34;;;;;;;26.33;13.88;;;4.70;99.90;;;;;;7332257;32;20755;-55
2023/03/06 18:37:36;;;;;;;25.12;14.30;;;4.70;99.90;;;;;;7334477;32;20131;-55
2023/03/06 18:41:38;;;;;;;22.17;14.82;;;4.70;99.90;;;;;;7330694;32;20301;-55
2023/03/06 18:45:42;;;;;;;22.75;14.73;;;4.70;99.90;;;;;;7336707;32;20275;-55
2023/03/06 18:49:44;;;;;;;24.48;14.65;;;4.70;99.90;;;;;;7333075;32;20198;-55
2023/03/06 18:53:46;;;;;;;23.50;14.95;;;4.70;99.90;;;;;;7334621;32;20898;-55
2023/03/06 18:57:48;;;;;;;27.85;13.98;;;4.70;99.90;;;;;;7342066;32;20171;-55
2023/03/06 19:01:56;;;;;;;25.10;14.87;;;4.70;99.90;;;;;;7338619;32;20125;-55
2023/03/06 19:05:58;;;;;;;27.80;15.77;;;4.70;99.90;;;;;;7333443;32;20315;-55
2023/03/06 19:09:59;;;;;;;26.42;14.93;;;4.70;99.90;;;;;;7337496;32;20221;-55
2023/03/06 19:14:01;;;;;;;25.92;15.20;;;4.70;99.90;;;;;;7341771;32;20138;-55
2023/03/06 19:18:03;;;;;;;26.58;14.50;;;4.80;99.90;;;;;;7338243;32;20625;-55
2023/03/06 19:22:05;;;;;;;23.08;13.75;;;4.80;99.90;;;;;;7332500;32;20228;-56
2023/03/06 19:26:07;;;;;;;25.58;14.57;;;4.80;99.90;;;;;;7329932;32;20261;-55
2023/03/06 19:30:10;;;;;;;24.25;14.35;;;4.80;99.90;;;;;;7337717;32;20164;-55
2023/03/06 19:34:12;;;;;;;22.75;13.70;;;4.70;99.90;;;;;;7334648;32;20190;-55
2023/03/06 19:38:14;;;;;;;26.10;14.95;;;4.80;99.90;;;;;;7332031;32;20256;-55
2023/03/06 19:42:16;;;;;;;27.10;14.45;;;4.80;99.90;;;;;;7334417;32;20119;-55
2023/03/06 19:46:18;;;;;;;26.75;13.88;;;4.80;99.90;;;;;;7332189;32;20669;-56
2023/03/06 19:50:22;;;;;;;23.08;14.18;;;4.80;99.90;;;;;;7342679;32;20117;-55
2023/03/06 19:54:24;;;;;;;23.05;13.07;;;4.80;99.90;;;;;;7342805;32;20190;-55
2023/03/06 19:58:26;;;;;;;23.85;13.90;;;4.80;99.90;;;;;;7337321;32;20108;-55
2023/03/06 20:02:27;;;;;;;26.42;13.82;;;4.80;99.90;;;;;;7333523;32;20134;-55
2023/03/06 20:06:37;;;;;;;21.08;11.60;;;4.80;99.90;;;;;;7333372;32;20482;-55
2023/03/06 20:10:39;;;;;;;23.90;12.32;;;4.70;99.90;;;;;;7336188;32;20151;-55
2023/03/06 20:14:41;;;;;;;19.70;10.63;;;4.70;99.90;;;;;;7339230;32;20607;-55
2023/03/06 20:18:44;;;;;;;21.77;12.45;;;4.70;99.90;;;;;;7340425;32;20129;-55
2023/03/06 20:22:45;;;;;;;21.77;13.18;;;4.70;99.90;;;;;;7339702;32;20111;-55
2023/03/06 20:26:49;;;;;;;21.40;11.90;;;4.70;99.90;;;;;;7341086;32;20111;-55
2023/03/06 20:30:51;;;;;;;20.98;12.45;;;4.70;99.90;;;;;;7336395;32;20731;-55
2023/03/06 20:34:53;;;;;;;21.87;11.43;;;4.80;99.90;;;;;;7339489;32;20122;-54
2023/03/06 20:38:57;;;;;;;21.65;11.82;;;4.70;99.90;;;;;;7338184;32;20425;-54
2023/03/06 20:42:59;;;;;;;21.62;12.68;;;4.70;99.90;;;;;;7337263;32;20170;-55
2023/03/06 20:47:00;;;;;;;23.52;13.30;;;4.80;99.90;;;;;;7335818;32;20103;-54
2023/03/06 20:51:09;;;;;;;26.70;14.18;;;4.80;99.90;;;;;;7326633;32;20142;-54
2023/03/06 20:55:10;;;;;;;26.08;14.60;;;4.70;99.90;;;;;;7332105;32;20446;-54
2023/03/06 20:59:13;;;;;;;26.00;14.40;;;4.70;99.90;;;;;;7335498;32;20127;-54
2023/03/06 21:03:14;;;;;;;26.40;15.10;;;4.70;99.90;;;;;;7337668;32;20689;-54